createdAt,value
2019-04-29T00:00:43.829Z,100947.75
2019-04-29T00:02:51.010Z,100948.61
2019-04-29T00:04:59.334Z,100954.29
2019-04-29T00:07:07.565Z,100942.05
2019-04-29T00:09:19.268Z,100938.61
2019-04-29T00:11:27.002Z,100932.48
2019-04-29T00:13:34.191Z,100939.48
2019-04-29T00:15:45.709Z,100934.25
2019-04-29T00:17:58.082Z,100929.41
2019-04-29T00:20:23.689Z,100926.33
2019-04-29T00:22:32.078Z,100930.66
2019-04-29T00:24:38.992Z,100933.67
2019-04-29T00:26:46.430Z,100930.11
2019-04-29T00:28:53.700Z,100930.97
2019-04-29T00:31:01.719Z,100930.17
2019-04-29T00:33:09.359Z,100932.80
2019-04-29T00:35:16.638Z,100929.83
2019-04-29T00:37:25.486Z,100929.83
2019-04-29T00:39:37.136Z,100931.94
2019-04-29T00:41:47.725Z,100926.16
2019-04-29T00:43:56.562Z,100932.28
2019-04-29T00:46:04.017Z,100931.84
2019-04-29T00:48:11.581Z,100933.12
2019-04-29T00:50:19.387Z,100926.92
2019-04-29T00:52:28.187Z,100930.88
2019-04-29T00:54:38.588Z,100931.39
2019-04-29T00:56:45.924Z,100934.98
2019-04-29T00:58:56.449Z,100942.70
2019-04-29T01:01:05.519Z,100944.02
2019-04-29T01:03:12.541Z,100936.20
2019-04-29T01:05:19.750Z,100936.20
2019-04-29T01:07:26.757Z,100937.06
2019-04-29T01:09:35.090Z,100936.58
2019-04-29T01:11:42.747Z,100932.19
2019-04-29T01:13:50.115Z,100935.27
2019-04-29T01:15:57.381Z,100937.86
2019-04-29T01:18:04.837Z,100933.12
2019-04-29T01:20:14.032Z,100930.08
2019-04-29T01:22:22.150Z,100927.45
2019-04-29T01:24:30.528Z,100935.78
2019-04-29T01:26:43.055Z,100931.05
2019-04-29T01:28:51.467Z,100937.20
2019-04-29T01:31:03.498Z,100932.84
2019-04-29T01:33:10.600Z,100933.28
2019-04-29T01:35:17.675Z,100932.91
2019-04-29T01:37:26.408Z,100929.86
2019-04-29T01:39:41.365Z,100930.31
2019-04-29T01:41:50.506Z,100925.92
2019-04-29T01:44:02.749Z,100929.41
2019-04-29T01:46:09.953Z,100921.11
2019-04-29T01:48:17.414Z,100923.80
2019-04-29T01:50:24.082Z,100922.94
2019-04-29T01:52:31.558Z,100928.58
2019-04-29T01:54:38.585Z,100925.57
2019-04-29T01:56:45.629Z,100921.63
2019-04-29T01:58:53.063Z,100919.89
2019-04-29T02:01:00.999Z,100915.09
2019-04-29T02:03:08.446Z,100912.45
2019-04-29T02:05:15.586Z,100905.89
2019-04-29T02:07:23.224Z,100912.45
2019-04-29T02:09:32.123Z,100909.83
2019-04-29T02:11:42.029Z,100915.09
2019-04-29T02:13:49.243Z,100908.52
2019-04-29T02:15:56.328Z,100902.80
2019-04-29T02:18:03.549Z,100909.34
2019-04-29T02:20:11.365Z,100913.67
2019-04-29T02:22:28.737Z,100909.80
2019-04-29T02:24:37.452Z,100909.89
2019-04-29T02:26:45.154Z,100909.52
2019-04-29T02:28:52.858Z,100900.31
2019-04-29T02:31:01.874Z,100902.94
2019-04-29T02:33:09.428Z,100906.34
2019-04-29T02:35:16.158Z,100899.31
2019-04-29T02:37:27.801Z,100905.78
2019-04-29T02:39:36.586Z,100896.69
2019-04-29T02:41:48.768Z,100897.62
2019-04-29T02:43:58.408Z,100894.02
2019-04-29T02:46:06.382Z,100886.62
2019-04-29T02:50:28.783Z,100885.41
2019-04-29T02:52:37.317Z,100884.95
2019-04-29T02:54:45.117Z,100887.66
2019-04-29T02:56:57.275Z,100888.10
2019-04-29T02:59:09.645Z,100886.82
2019-04-29T03:01:38.255Z,100884.64
2019-04-29T03:03:47.153Z,100882.95
2019-04-29T03:06:00.367Z,100878.69
2019-04-29T03:08:07.221Z,100885.20
2019-04-29T03:10:14.844Z,100883.15
2019-04-29T03:12:22.792Z,100876.96
2019-04-29T03:14:30.796Z,100878.06
2019-04-29T03:16:38.157Z,100875.95
2019-04-29T03:18:49.798Z,100873.39
2019-04-29T03:20:58.955Z,100872.97
2019-04-29T03:23:11.069Z,100868.61
2019-04-29T03:25:18.189Z,100880.61
2019-04-29T03:27:27.392Z,100873.27
2019-04-29T03:29:34.402Z,100879.94
2019-04-29T03:31:42.277Z,100872.22
2019-04-29T03:33:50.492Z,100877.09
2019-04-29T03:35:57.998Z,100874.95
2019-04-29T03:38:05.639Z,100881.13
2019-04-29T03:40:13.013Z,100881.61
2019-04-29T03:42:20.008Z,100883.63
2019-04-29T03:44:27.602Z,100888.05
2019-04-29T03:46:34.681Z,100890.00
2019-04-29T03:48:41.963Z,100887.89
2019-04-29T03:50:48.985Z,100886.22
2019-04-29T03:52:56.052Z,100893.27
2019-04-29T03:55:03.699Z,100896.43
2019-04-29T03:57:12.902Z,100904.38
2019-04-29T03:59:20.593Z,100896.94
2019-04-29T04:01:42.254Z,100896.08
2019-04-29T04:03:51.260Z,100899.59
2019-04-29T04:06:16.245Z,100894.86
2019-04-29T04:08:25.200Z,100904.11
2019-04-29T04:10:32.059Z,100904.26
2019-04-29T04:12:39.050Z,100894.63
2019-04-29T04:15:07.237Z,100900.41
2019-04-29T04:17:20.238Z,100900.14
2019-04-29T04:19:25.833Z,100900.59
2019-04-29T04:21:33.252Z,100904.89
2019-04-29T04:23:40.661Z,100901.78
2019-04-29T04:25:48.210Z,100905.72
2019-04-29T04:27:55.599Z,100907.48
2019-04-29T04:30:02.993Z,100908.34
2019-04-29T04:32:10.168Z,100916.61
2019-04-29T04:34:17.241Z,100913.92
2019-04-29T04:36:24.684Z,100909.03
2019-04-29T04:38:31.698Z,100907.66
2019-04-29T04:40:46.971Z,100904.23
2019-04-29T04:42:53.996Z,100899.48
2019-04-29T04:45:01.092Z,100908.61
2019-04-29T04:47:08.598Z,100899.88
2019-04-29T04:49:16.079Z,100902.38
2019-04-29T04:51:23.192Z,100907.09
2019-04-29T04:53:30.530Z,100906.22
2019-04-29T04:55:39.746Z,100911.50
2019-04-29T04:57:47.708Z,100914.55
2019-04-29T04:59:54.985Z,100924.87
2019-04-29T05:02:02.170Z,100920.66
2019-04-29T05:04:09.706Z,100925.75
2019-04-29T05:06:16.969Z,100921.37
2019-04-29T05:08:24.054Z,100922.14
2019-04-29T05:10:31.357Z,100924.77
2019-04-29T05:12:38.447Z,100922.20
2019-04-29T05:14:45.150Z,100925.60
2019-04-29T05:16:52.453Z,100922.53
2019-04-29T05:18:59.915Z,100925.34
2019-04-29T05:21:07.248Z,100924.77
2019-04-29T05:23:14.797Z,100913.86
2019-04-29T05:25:22.239Z,100921.55
2019-04-29T05:27:29.435Z,100927.78
2019-04-29T05:29:37.699Z,100929.09
2019-04-29T05:31:45.537Z,100932.28
2019-04-29T05:33:53.112Z,100925.16
2019-04-29T05:36:07.024Z,100928.78
2019-04-29T05:38:19.236Z,100932.13
2019-04-29T05:40:40.455Z,100926.75
2019-04-29T05:42:48.296Z,100930.84
2019-04-29T05:45:09.210Z,100926.27
2019-04-29T05:47:18.105Z,100932.03
2019-04-29T05:49:29.777Z,100926.44
2019-04-29T05:51:50.568Z,100920.64
2019-04-29T05:54:01.970Z,100913.16
2019-04-29T05:56:09.260Z,100926.73
2019-04-29T05:58:16.730Z,100930.96
2019-04-29T06:00:24.282Z,100929.98
2019-04-29T06:02:36.331Z,100926.91
2019-04-29T06:04:40.634Z,100919.33
2019-04-29T06:06:47.611Z,100919.45
2019-04-29T06:08:55.224Z,100924.92
2019-04-29T06:11:03.305Z,100921.55
2019-04-29T06:13:10.453Z,100917.68
2019-04-29T06:15:17.535Z,100923.44
2019-04-29T06:17:33.655Z,100920.46
2019-04-29T06:19:41.375Z,100928.89
2019-04-29T06:21:48.783Z,100925.80
2019-04-29T06:23:59.474Z,100926.77
2019-04-29T06:26:05.076Z,100928.05
2019-04-29T06:30:26.997Z,100928.68
2019-04-29T06:32:33.727Z,100924.84
2019-04-29T06:34:41.772Z,100921.80
2019-04-29T06:36:49.646Z,100925.75
2019-04-29T06:38:57.623Z,100923.69
2019-04-29T06:41:05.530Z,100929.11
2019-04-29T06:43:36.159Z,100923.46
2019-04-29T06:45:44.487Z,100925.86
2019-04-29T06:47:51.787Z,100917.38
2019-04-29T06:49:58.776Z,100918.02
2019-04-29T06:52:06.013Z,100911.24
2019-04-29T06:54:12.994Z,100910.34
2019-04-29T06:56:21.241Z,100912.25
2019-04-29T06:58:28.342Z,100913.07
2019-04-29T07:00:35.356Z,100908.66
2019-04-29T07:02:45.452Z,100904.63
2019-04-29T07:04:51.895Z,100898.83
2019-04-29T07:06:59.103Z,100904.64
2019-04-29T07:09:08.062Z,100901.77
2019-04-29T07:11:15.206Z,100899.84
2019-04-29T07:13:24.257Z,100894.09
2019-04-29T07:15:31.285Z,100899.02
2019-04-29T07:17:41.312Z,100888.93
2019-04-29T07:19:48.219Z,100891.30
2019-04-29T07:21:56.638Z,100889.25
2019-04-29T07:24:04.083Z,100895.94
2019-04-29T07:26:11.690Z,100901.48
2019-04-29T07:28:18.678Z,100902.16
2019-04-29T07:30:29.249Z,100907.44
2019-04-29T07:32:35.605Z,100901.16
2019-04-29T07:35:05.867Z,100908.61
2019-04-29T07:37:13.033Z,100903.04
2019-04-29T07:39:20.835Z,100907.45
2019-04-29T07:41:27.999Z,100902.17
2019-04-29T07:43:38.641Z,100898.52
2019-04-29T07:46:03.712Z,100907.83
2019-04-29T07:48:09.890Z,100903.41
2019-04-29T07:50:17.481Z,100895.23
2019-04-29T07:52:25.763Z,100901.23
2019-04-29T07:54:32.960Z,100904.28
2019-04-29T07:56:42.329Z,100913.09
2019-04-29T07:58:51.379Z,100898.41
2019-04-29T08:00:58.677Z,100901.92
2019-04-29T08:03:08.687Z,100900.14
2019-04-29T08:05:16.233Z,100890.78
2019-04-29T08:07:30.689Z,100897.11
2019-04-29T08:09:44.260Z,100891.25
2019-04-29T08:11:49.489Z,100898.11
2019-04-29T08:13:58.504Z,100896.94
2019-04-29T08:16:05.803Z,100896.33
2019-04-29T08:18:16.316Z,100901.45
2019-04-29T08:20:22.736Z,100901.20
2019-04-29T08:22:32.117Z,100896.92
2019-04-29T08:24:39.051Z,100906.73
2019-04-29T08:26:47.966Z,100903.19
2019-04-29T08:29:00.313Z,100906.77
2019-04-29T08:31:03.668Z,100907.83
2019-04-29T08:33:12.291Z,100901.73
2019-04-29T08:35:20.350Z,100895.27
2019-04-29T08:37:27.761Z,100897.52
2019-04-29T08:39:35.233Z,100897.22
2019-04-29T08:41:43.535Z,100901.59
2019-04-29T08:44:16.023Z,100897.91
2019-04-29T08:46:13.074Z,100899.58
2019-04-29T08:48:20.234Z,100890.87
2019-04-29T08:50:27.928Z,100887.33
2019-04-29T08:52:35.513Z,100887.86
2019-04-29T08:54:43.355Z,100886.88
2019-04-29T08:57:02.158Z,100879.55
2019-04-29T08:58:59.631Z,100884.37
2019-04-29T09:01:07.153Z,100894.70
2019-04-29T09:03:14.178Z,100876.48
2019-04-29T09:05:21.553Z,100889.61
2019-04-29T09:07:28.474Z,100869.77
2019-04-29T09:09:35.794Z,100873.38
2019-04-29T09:11:43.546Z,100876.86
2019-04-29T09:13:51.844Z,100871.19
2019-04-29T09:15:58.794Z,100869.96
2019-04-29T09:18:06.290Z,100872.15
2019-04-29T09:20:14.104Z,100875.00
2019-04-29T09:22:22.924Z,100876.05
2019-04-29T09:24:30.034Z,100879.97
2019-04-29T09:26:42.113Z,100881.63
2019-04-29T09:28:49.908Z,100874.14
2019-04-29T09:30:57.303Z,100876.61
2019-04-29T09:33:04.574Z,100872.91
2019-04-29T09:35:11.854Z,100874.90
2019-04-29T09:37:18.739Z,100874.32
2019-04-29T09:39:27.628Z,100874.31
2019-04-29T09:41:36.414Z,100879.36
2019-04-29T09:43:54.443Z,100879.48
2019-04-29T09:46:03.250Z,100868.17
2019-04-29T09:48:11.026Z,100863.91
2019-04-29T09:50:20.815Z,100870.95
2019-04-29T09:52:32.864Z,100860.77
2019-04-29T09:54:40.186Z,100868.34
2019-04-29T09:56:47.564Z,100870.48
2019-04-29T09:58:56.240Z,100857.91
2019-04-29T10:01:19.133Z,100867.75
2019-04-29T10:03:28.331Z,100861.30
2019-04-29T10:05:40.749Z,100855.97
2019-04-29T10:07:48.301Z,100863.44
2019-04-29T10:09:57.399Z,100854.56
2019-04-29T10:12:04.435Z,100854.84
2019-04-29T10:14:13.578Z,100850.48
2019-04-29T10:16:39.056Z,100852.24
2019-04-29T10:18:47.808Z,100850.27
2019-04-29T10:21:02.592Z,100849.50
2019-04-29T10:27:24.328Z,100841.83
2019-04-29T10:29:32.966Z,100839.73
2019-04-29T10:31:44.316Z,100841.50
2019-04-29T10:33:54.958Z,100843.92
2019-04-29T10:36:01.665Z,100832.78
2019-04-29T10:38:08.834Z,100833.09
2019-04-29T10:40:56.486Z,100833.25
2019-04-29T10:43:11.458Z,100836.56
2019-04-29T10:45:22.204Z,100831.79
2019-04-29T10:47:34.582Z,100836.56
2019-04-29T10:49:43.825Z,100834.93
2019-04-29T10:51:51.024Z,100826.42
2019-04-29T10:53:58.445Z,100825.43
2019-04-29T10:56:07.013Z,100827.67
2019-04-29T10:58:14.361Z,100824.27
2019-04-29T11:00:28.232Z,100822.48
2019-04-29T11:02:37.737Z,100821.81
2019-04-29T11:04:48.621Z,100817.47
2019-04-29T11:06:56.042Z,100826.97
2019-04-29T11:09:14.331Z,100836.46
2019-04-29T11:11:23.249Z,100821.59
2019-04-29T11:13:30.375Z,100826.19
2019-04-29T11:15:38.868Z,100820.72
2019-04-29T11:17:47.900Z,100824.97
2019-04-29T11:19:55.360Z,100817.96
2019-04-29T11:22:03.276Z,100826.35
2019-04-29T11:24:12.175Z,100826.95
2019-04-29T11:26:24.430Z,100826.23
2019-04-29T11:28:32.109Z,100820.00
2019-04-29T11:30:40.611Z,100818.86
2019-04-29T11:32:54.565Z,100818.89
2019-04-29T11:35:06.266Z,100820.60
2019-04-29T11:37:17.763Z,100819.17
2019-04-29T11:39:23.398Z,100812.09
2019-04-29T11:41:32.175Z,100821.94
2019-04-29T11:43:40.219Z,100818.09
2019-04-29T11:45:47.592Z,100808.09
2019-04-29T11:47:54.924Z,100811.72
2019-04-29T11:50:18.862Z,100816.78
2019-04-29T11:52:28.179Z,100819.85
2019-04-29T11:54:35.579Z,100808.00
2019-04-29T11:56:43.608Z,100814.38
2019-04-29T11:58:59.792Z,100809.80
2019-04-29T12:01:37.875Z,100806.18
2019-04-29T12:03:41.663Z,100812.05
2019-04-29T12:05:53.993Z,100808.47
2019-04-29T12:08:05.010Z,100815.97
2019-04-29T12:10:12.239Z,100810.57
2019-04-29T12:12:22.558Z,100796.97
2019-04-29T12:14:38.059Z,100798.52
2019-04-29T12:17:01.228Z,100810.69
2019-04-29T12:19:26.442Z,100802.70
2019-04-29T12:21:35.489Z,100811.46
2019-04-29T12:23:42.418Z,100800.03
2019-04-29T12:25:49.812Z,100800.77
2019-04-29T12:28:01.604Z,100804.44
2019-04-29T12:30:10.404Z,100801.12
2019-04-29T12:32:20.743Z,100795.17
2019-04-29T12:34:46.983Z,100791.41
2019-04-29T12:36:56.448Z,100778.08
2019-04-29T12:39:42.361Z,100793.31
2019-04-29T12:41:48.515Z,100791.09
2019-04-29T12:43:54.023Z,100795.22
2019-04-29T12:46:04.706Z,100788.91
2019-04-29T12:48:23.953Z,100780.27
2019-04-29T12:50:22.838Z,100786.27
2019-04-29T12:52:30.752Z,100784.28
2019-04-29T12:54:41.874Z,100777.77
2019-04-29T12:56:49.236Z,100781.55
2019-04-29T12:58:59.661Z,100770.16
2019-04-29T13:01:10.721Z,100771.48
2019-04-29T13:03:19.577Z,100768.52
2019-04-29T13:05:57.163Z,100770.72
2019-04-29T13:07:54.676Z,100773.00
2019-04-29T13:10:13.602Z,100772.19
2019-04-29T13:12:20.149Z,100765.98
2019-04-29T13:14:33.202Z,100769.04
2019-04-29T13:16:40.283Z,100768.61
2019-04-29T13:18:48.870Z,100774.09
2019-04-29T13:21:09.513Z,100769.89
2019-04-29T13:23:17.290Z,100765.38
2019-04-29T13:25:19.750Z,100771.06
2019-04-29T13:27:26.717Z,100765.03
2019-04-29T13:29:36.196Z,100770.19
2019-04-29T13:31:43.083Z,100772.56
2019-04-29T13:33:52.906Z,100763.07
2019-04-29T13:36:00.353Z,100762.88
2019-04-29T13:38:07.959Z,100761.22
2019-04-29T13:40:16.823Z,100755.02
2019-04-29T13:42:24.431Z,100760.46
2019-04-29T13:44:32.395Z,100757.78
2019-04-29T13:46:51.096Z,100756.97
2019-04-29T13:49:13.184Z,100750.52
2019-04-29T13:51:34.044Z,100752.41
2019-04-29T13:53:26.575Z,100758.36
2019-04-29T13:55:47.978Z,100748.81
2019-04-29T13:57:45.038Z,100748.09
2019-04-29T14:00:10.967Z,100751.16
2019-04-29T14:02:31.367Z,100731.66
2019-04-29T14:04:37.006Z,100729.66
2019-04-29T14:06:56.701Z,100739.14
2019-04-29T14:08:55.325Z,100754.06
2019-04-29T14:11:03.434Z,100748.40
2019-04-29T14:13:16.301Z,100755.30
2019-04-29T14:15:21.112Z,100749.20
2019-04-29T14:17:31.830Z,100755.86
2019-04-29T14:19:42.301Z,100747.24
2019-04-29T14:21:48.082Z,100751.30
2019-04-29T14:23:54.936Z,100749.71
2019-04-29T14:26:01.802Z,100738.97
2019-04-29T14:28:15.055Z,100739.05
2019-04-29T14:30:37.324Z,100750.29
2019-04-29T14:32:37.887Z,100755.61
2019-04-29T14:34:53.102Z,100757.47
2019-04-29T14:37:18.354Z,100755.52
2019-04-29T14:39:15.629Z,100736.59
2019-04-29T14:41:20.688Z,100751.52
2019-04-29T14:45:55.102Z,100752.53
2019-04-29T14:48:20.463Z,100753.69
2019-04-29T14:50:30.683Z,100754.52
2019-04-29T14:52:36.964Z,100758.95
2019-04-29T14:54:43.815Z,100748.48
2019-04-29T14:56:50.096Z,100750.05
2019-04-29T14:59:06.506Z,100750.59
2019-04-29T15:01:17.336Z,100761.08
2019-04-29T15:03:25.804Z,100752.08
2019-04-29T15:05:34.047Z,100759.70
2019-04-29T15:07:42.057Z,100754.91
2019-04-29T15:09:58.363Z,100753.39
2019-04-29T15:12:07.142Z,100763.38
2019-04-29T15:14:31.607Z,100768.23
2019-04-29T15:16:40.425Z,100757.14
2019-04-29T15:18:50.021Z,100756.23
2019-04-29T15:20:56.882Z,100754.09
2019-04-29T15:23:03.972Z,100755.34
2019-04-29T15:25:12.523Z,100763.38
2019-04-29T15:27:18.841Z,100762.84
2019-04-29T15:29:26.448Z,100757.17
2019-04-29T15:31:32.913Z,100757.77
2019-04-29T15:33:39.523Z,100766.72
2019-04-29T15:35:46.044Z,100757.53
2019-04-29T15:37:52.525Z,100761.55
2019-04-29T15:39:58.981Z,100766.81
2019-04-29T15:42:06.977Z,100760.39
2019-04-29T15:44:20.110Z,100762.89
2019-04-29T15:46:23.601Z,100760.39
2019-04-29T15:48:30.448Z,100762.36
2019-04-29T15:50:39.123Z,100769.29
2019-04-29T15:52:45.556Z,100767.13
2019-04-29T15:54:52.764Z,100767.15
2019-04-29T15:57:03.799Z,100769.69
2019-04-29T15:59:09.814Z,100766.75
2019-04-29T16:03:27.405Z,100772.27
2019-04-29T16:05:54.172Z,100772.81
2019-04-29T16:10:21.946Z,100779.14
2019-04-29T16:12:33.815Z,100771.25
2019-04-29T16:14:40.262Z,100777.31
2019-04-29T16:16:48.248Z,100779.69
2019-04-29T16:18:55.057Z,100785.30
2019-04-29T16:21:01.503Z,100779.22
2019-04-29T16:23:08.821Z,100782.05
2019-04-29T16:25:16.897Z,100784.36
2019-04-29T16:27:23.897Z,100779.59
2019-04-29T16:29:30.155Z,100777.30
2019-04-29T16:31:36.705Z,100781.20
2019-04-29T16:33:47.298Z,100779.22
2019-04-29T16:35:51.782Z,100787.01
2019-04-29T16:38:05.693Z,100783.08
2019-04-29T16:40:11.641Z,100786.23
2019-04-29T16:42:22.648Z,100792.16
2019-04-29T16:44:36.668Z,100786.23
2019-04-29T16:46:38.117Z,100792.87
2019-04-29T16:48:45.048Z,100799.81
2019-04-29T16:50:53.376Z,100797.60
2019-04-29T16:53:00.219Z,100798.53
2019-04-29T16:55:30.237Z,100809.98
2019-04-29T16:57:39.858Z,100803.74
2019-04-29T16:59:48.148Z,100807.16
2019-04-29T17:01:55.242Z,100816.15
2019-04-29T17:04:05.587Z,100810.30
2019-04-29T17:06:12.650Z,100816.75
2019-04-29T17:08:22.709Z,100817.48
2019-04-29T17:10:38.682Z,100818.89
2019-04-29T17:12:49.145Z,100828.91
2019-04-29T17:15:04.129Z,100831.09
2019-04-29T17:17:09.963Z,100831.81
2019-04-29T17:19:17.323Z,100831.08
2019-04-29T17:21:24.643Z,100838.16
2019-04-29T17:23:31.493Z,100843.81
2019-04-29T17:25:39.723Z,100841.39
2019-04-29T17:27:54.289Z,100839.61
2019-04-29T17:30:07.794Z,100849.55
2019-04-29T17:32:24.481Z,100856.22
2019-04-29T17:34:56.832Z,100854.03
2019-04-29T17:35:15.456Z,100769.80
2019-04-29T17:35:17.131Z,100780.25
2019-04-29T17:36:42.398Z,100864.61
2019-04-29T17:38:50.652Z,100867.86
2019-04-29T17:40:58.547Z,100867.77
2019-04-29T17:43:08.052Z,100867.20
2019-04-29T17:45:26.959Z,100876.74
2019-04-29T17:47:37.869Z,100869.25
2019-04-29T17:49:52.628Z,100879.25
2019-04-29T17:52:02.941Z,100888.80
2019-04-29T17:54:10.376Z,100894.02
2019-04-29T17:56:37.652Z,100883.09
2019-04-29T17:58:51.397Z,100894.37
2019-04-29T18:00:59.436Z,100893.44
2019-04-29T18:03:25.222Z,100892.13
2019-04-29T18:05:52.984Z,100900.41
2019-04-29T18:07:51.764Z,100901.72
2019-04-29T18:10:01.397Z,100902.77
2019-04-29T18:12:10.542Z,100911.01
2019-04-29T18:14:21.930Z,100909.17
2019-04-29T18:16:30.979Z,100916.03
2019-04-29T18:19:00.330Z,100911.06
2019-04-29T18:21:14.954Z,100908.36
2019-04-29T18:23:31.380Z,100920.95
2019-04-29T18:25:44.890Z,100918.20
2019-04-29T18:28:00.031Z,100925.95
2019-04-29T18:30:06.957Z,100930.70
2019-04-29T18:32:15.499Z,100930.20
2019-04-29T18:34:23.134Z,100929.55
2019-04-29T18:36:29.966Z,100936.31
2019-04-29T18:38:42.430Z,100938.73
2019-04-29T18:40:49.446Z,100939.88
2019-04-29T18:42:56.731Z,100940.58
2019-04-29T18:45:05.114Z,100943.56
2019-04-29T18:47:20.653Z,100938.98
2019-04-29T18:49:26.008Z,100945.34
2019-04-29T18:51:34.751Z,100941.67
2019-04-29T18:53:42.973Z,100948.48
2019-04-29T18:55:50.759Z,100955.22
2019-04-29T18:57:58.491Z,100959.40
2019-04-29T19:00:12.737Z,100954.81
2019-04-29T19:02:17.626Z,100950.73
2019-04-29T19:04:27.752Z,100958.79
2019-04-29T19:06:36.311Z,100951.97
2019-04-29T19:08:45.009Z,100963.52
2019-04-29T19:10:55.533Z,100962.76
2019-04-29T19:13:05.380Z,100958.61
2019-04-29T19:15:15.134Z,100956.61
2019-04-29T19:17:23.233Z,100971.22
2019-04-29T19:19:34.821Z,100974.48
2019-04-29T19:21:40.777Z,100978.67
2019-04-29T19:23:52.588Z,100977.88
2019-04-29T19:25:59.312Z,100973.69
2019-04-29T19:28:12.663Z,100977.77
2019-04-29T19:30:20.762Z,100975.86
2019-04-29T19:32:25.192Z,100979.58
2019-04-29T19:34:42.214Z,100981.55
2019-04-29T19:36:41.052Z,100979.12
2019-04-29T19:38:48.592Z,100975.75
2019-04-29T19:40:55.864Z,100981.63
2019-04-29T19:43:03.212Z,100983.96
2019-04-29T19:45:13.336Z,100985.02
2019-04-29T19:47:19.581Z,100979.89
2019-04-29T19:49:26.852Z,100987.06
2019-04-29T19:51:35.113Z,100982.86
2019-04-29T19:53:47.656Z,100981.73
2019-04-29T19:56:01.442Z,100984.52
2019-04-29T19:58:00.363Z,100987.73
2019-04-29T20:00:10.942Z,100988.73
2019-04-29T20:02:20.515Z,100984.45
2019-04-29T20:04:32.689Z,100986.73
2019-04-29T20:06:41.175Z,100979.39
2019-04-29T20:08:57.028Z,100989.17
2019-04-29T20:11:11.645Z,100987.53
2019-04-29T20:13:09.887Z,100993.41
2019-04-29T20:15:17.608Z,100999.25
2019-04-29T20:17:36.499Z,100999.36
2019-04-29T20:20:00.672Z,101001.31
2019-04-29T20:22:09.890Z,101003.19
2019-04-29T20:24:23.367Z,101005.03
2019-04-29T20:26:31.379Z,101006.37
2019-04-29T20:28:39.700Z,101005.67
2019-04-29T20:30:50.508Z,101006.67
2019-04-29T20:32:56.079Z,101001.08
2019-04-29T20:35:07.231Z,101005.98
2019-04-29T20:37:16.159Z,101003.95
2019-04-29T20:39:23.208Z,101009.72
2019-04-29T20:41:40.080Z,101008.95
2019-04-29T20:43:41.462Z,101015.20
2019-04-29T20:45:48.331Z,101013.05
2019-04-29T20:47:56.213Z,101016.63
2019-04-29T20:50:03.448Z,101014.09
2019-04-29T20:52:13.463Z,101018.17
2019-04-29T20:54:27.539Z,101025.25
2019-04-29T20:56:35.398Z,101020.50
2019-04-29T20:58:44.200Z,101019.27
2019-04-29T21:00:50.560Z,101023.27
2019-04-29T21:02:57.414Z,101017.23
2019-04-29T21:05:06.554Z,101022.50
2019-04-29T21:07:18.418Z,101017.77
2019-04-29T21:09:27.526Z,101014.84
2019-04-29T21:11:35.641Z,101010.41
2019-04-29T21:13:55.979Z,101011.37
2019-04-29T21:16:05.331Z,101015.36
2019-04-29T21:18:14.554Z,101021.13
2019-04-29T21:20:20.688Z,101022.64
2019-04-29T21:22:27.354Z,101023.61
2019-04-29T21:24:35.343Z,101023.61
2019-04-29T21:26:44.422Z,101014.58
2019-04-29T21:28:50.731Z,101022.95
2019-04-29T21:30:58.960Z,101028.26
2019-04-29T21:33:08.330Z,101024.82
2019-04-29T21:35:19.866Z,101026.64
2019-04-29T21:37:32.563Z,101027.97
2019-04-29T21:39:41.901Z,101028.46
2019-04-29T21:42:01.791Z,101021.54
2019-04-29T21:44:08.464Z,101029.86
2019-04-29T21:46:18.020Z,101024.23
2019-04-29T21:48:25.345Z,101026.94
2019-04-29T21:50:36.364Z,101038.34
2019-04-29T21:52:41.576Z,101026.20
2019-04-29T21:54:49.334Z,101019.66
2019-04-29T21:56:56.174Z,101028.94
2019-04-29T21:59:09.538Z,101028.13
2019-04-29T22:01:11.639Z,101031.20
2019-04-29T22:03:24.589Z,101029.94
2019-04-29T22:05:27.846Z,101026.95
2019-04-29T22:07:35.722Z,101028.77
2019-04-29T22:09:47.318Z,101022.72
2019-04-29T22:11:52.813Z,101029.27
2019-04-29T22:13:59.153Z,101023.23
2019-04-29T22:16:11.367Z,101021.97
2019-04-29T22:18:18.090Z,101028.02
2019-04-29T22:20:28.963Z,101032.01
2019-04-29T22:22:37.092Z,101031.64
2019-04-29T22:24:43.472Z,101038.73
2019-04-29T22:26:50.007Z,101034.87
2019-04-29T22:29:01.767Z,101027.05
2019-04-29T22:31:07.665Z,101025.80
2019-04-29T22:33:15.345Z,101033.69
2019-04-29T22:35:22.631Z,101028.95
2019-04-29T22:37:29.809Z,101032.97
2019-04-29T22:39:36.284Z,101031.77
2019-04-29T22:41:43.147Z,101029.61
2019-04-29T22:46:09.358Z,101031.83
2019-04-29T22:48:19.438Z,101023.94
2019-04-29T22:50:23.430Z,101023.98
2019-04-29T22:52:31.421Z,101023.98
2019-04-29T22:54:40.041Z,101023.56
2019-04-29T22:56:53.674Z,101019.64
2019-04-29T22:58:58.844Z,101017.95
2019-04-29T23:01:06.790Z,101013.64
2019-04-29T23:03:16.600Z,101019.37
2019-04-29T23:05:27.959Z,101018.55
2019-04-29T23:07:35.233Z,101020.80
2019-04-29T23:09:41.748Z,101013.88
2019-04-29T23:11:49.827Z,101019.16
2019-04-29T23:13:56.580Z,101012.19
2019-04-29T23:16:02.834Z,101018.33
2019-04-29T23:18:10.127Z,101012.29
2019-04-29T23:20:28.815Z,101013.55
2019-04-29T23:22:43.138Z,101007.51
2019-04-29T23:24:51.277Z,101009.31
2019-04-29T23:26:57.518Z,101012.36
2019-04-29T23:29:07.202Z,101009.02
2019-04-29T23:31:12.277Z,101009.47
2019-04-29T23:33:23.015Z,101011.70
2019-04-29T23:35:27.318Z,101007.44
2019-04-29T23:37:35.764Z,101005.75
2019-04-29T23:39:45.726Z,101000.97
2019-04-29T23:41:52.381Z,101001.89
2019-04-29T23:43:59.860Z,101002.81
2019-04-29T23:46:07.154Z,101001.12
2019-04-29T23:48:13.726Z,101003.34
2019-04-29T23:50:20.410Z,100999.00
2019-04-29T23:52:27.050Z,100998.66
2019-04-29T23:54:44.347Z,100999.96
2019-04-29T23:56:52.479Z,100999.14
2019-04-29T23:59:05.415Z,101001.31
